sensor_id;sensor_type;location;lat;lon;timestamp;P1;durP1;ratioP1;P2;durP2;ratioP2
65035;SDS011;51603;49.300;8.880;2023-11-21T00:02:05;7.60;;;3.60;;
65035;SDS011;51603;49.300;8.880;2023-11-21T00:04:31;7.43;;;4.87;;
65035;SDS011;51603;49.300;8.880;2023-11-21T00:06:57;13.60;;;4.47;;
65035;SDS011;51603;49.300;8.880;2023-11-21T00:09:22;9.00;;;3.87;;
65035;SDS011;51603;49.300;8.880;2023-11-21T00:11:48;5.23;;;3.37;;
65035;SDS011;51603;49.300;8.880;2023-11-21T00:14:13;14.83;;;6.20;;
65035;SDS011;51603;49.300;8.880;2023-11-21T00:16:40;3.60;;;2.70;;
65035;SDS011;51603;49.300;8.880;2023-11-21T00:19:06;6.93;;;3.07;;
65035;SDS011;51603;49.300;8.880;2023-11-21T00:21:31;4.07;;;2.33;;
65035;SDS011;51603;49.300;8.880;2023-11-21T00:23:57;4.50;;;2.53;;
65035;SDS011;51603;49.300;8.880;2023-11-21T00:26:22;5.60;;;3.17;;
65035;SDS011;51603;49.300;8.880;2023-11-21T00:28:49;5.67;;;2.80;;
65035;SDS011;51603;49.300;8.880;2023-11-21T00:31:15;7.07;;;2.67;;
65035;SDS011;51603;49.300;8.880;2023-11-21T00:33:41;5.80;;;3.00;;
65035;SDS011;51603;49.300;8.880;2023-11-21T00:36:06;10.83;;;3.40;;
65035;SDS011;51603;49.300;8.880;2023-11-21T00:38:34;8.23;;;4.30;;
65035;SDS011;51603;49.300;8.880;2023-11-21T00:41:01;9.83;;;4.87;;
65035;SDS011;51603;49.300;8.880;2023-11-21T00:43:26;9.33;;;6.73;;
65035;SDS011;51603;49.300;8.880;2023-11-21T00:45:52;7.97;;;5.43;;
65035;SDS011;51603;49.300;8.880;2023-11-21T00:48:17;8.50;;;6.50;;
65035;SDS011;51603;49.300;8.880;2023-11-21T00:50:43;5.80;;;4.70;;
65035;SDS011;51603;49.300;8.880;2023-11-21T00:53:09;7.00;;;3.07;;
65035;SDS011;51603;49.300;8.880;2023-11-21T00:55:35;5.10;;;2.60;;
65035;SDS011;51603;49.300;8.880;2023-11-21T00:58:01;6.87;;;2.40;;
65035;SDS011;51603;49.300;8.880;2023-11-21T01:00:29;12.20;;;2.77;;
65035;SDS011;51603;49.300;8.880;2023-11-21T01:02:54;5.93;;;2.53;;
65035;SDS011;51603;49.300;8.880;2023-11-21T01:05:20;4.73;;;2.40;;
65035;SDS011;51603;49.300;8.880;2023-11-21T01:07:45;4.57;;;2.00;;
65035;SDS011;51603;49.300;8.880;2023-11-21T01:10:11;5.40;;;2.43;;
65035;SDS011;51603;49.300;8.880;2023-11-21T01:12:37;8.90;;;2.73;;
65035;SDS011;51603;49.300;8.880;2023-11-21T01:15:04;6.50;;;2.20;;
65035;SDS011;51603;49.300;8.880;2023-11-21T01:17:32;5.30;;;2.20;;
65035;SDS011;51603;49.300;8.880;2023-11-21T01:19:59;3.70;;;2.13;;
65035;SDS011;51603;49.300;8.880;2023-11-21T01:22:25;6.23;;;2.23;;
65035;SDS011;51603;49.300;8.880;2023-11-21T01:24:51;5.10;;;2.07;;
65035;SDS011;51603;49.300;8.880;2023-11-21T01:27:18;12.77;;;3.20;;
65035;SDS011;51603;49.300;8.880;2023-11-21T01:29:43;5.57;;;3.20;;
65035;SDS011;51603;49.300;8.880;2023-11-21T01:32:09;6.17;;;2.80;;
65035;SDS011;51603;49.300;8.880;2023-11-21T01:34:35;4.40;;;2.20;;
65035;SDS011;51603;49.300;8.880;2023-11-21T01:37:01;12.43;;;2.97;;
65035;SDS011;51603;49.300;8.880;2023-11-21T01:39:29;8.27;;;2.43;;
65035;SDS011;51603;49.300;8.880;2023-11-21T01:41:55;7.50;;;3.00;;
65035;SDS011;51603;49.300;8.880;2023-11-21T01:44:23;3.53;;;1.67;;
65035;SDS011;51603;49.300;8.880;2023-11-21T01:46:49;4.70;;;1.93;;
65035;SDS011;51603;49.300;8.880;2023-11-21T01:49:15;6.17;;;2.73;;
65035;SDS011;51603;49.300;8.880;2023-11-21T01:51:42;8.47;;;3.20;;
65035;SDS011;51603;49.300;8.880;2023-11-21T01:54:13;7.10;;;3.63;;
65035;SDS011;51603;49.300;8.880;2023-11-21T01:56:39;4.33;;;2.67;;
65035;SDS011;51603;49.300;8.880;2023-11-21T01:59:05;9.87;;;3.60;;
65035;SDS011;51603;49.300;8.880;2023-11-21T02:01:32;8.03;;;5.30;;
65035;SDS011;51603;49.300;8.880;2023-11-21T02:03:58;6.07;;;4.77;;
65035;SDS011;51603;49.300;8.880;2023-11-21T02:06:24;8.23;;;3.40;;
65035;SDS011;51603;49.300;8.880;2023-11-21T02:08:50;3.53;;;3.13;;
65035;SDS011;51603;49.300;8.880;2023-11-21T02:11:16;9.67;;;3.83;;
65035;SDS011;51603;49.300;8.880;2023-11-21T02:13:42;9.73;;;4.93;;
65035;SDS011;51603;49.300;8.880;2023-11-21T02:16:08;5.77;;;4.40;;
65035;SDS011;51603;49.300;8.880;2023-11-21T02:18:35;11.53;;;3.60;;
65035;SDS011;51603;49.300;8.880;2023-11-21T02:21:01;8.33;;;3.93;;
65035;SDS011;51603;49.300;8.880;2023-11-21T02:23:29;7.10;;;3.43;;
65035;SDS011;51603;49.300;8.880;2023-11-21T02:25:55;4.87;;;3.73;;
65035;SDS011;51603;49.300;8.880;2023-11-21T02:28:21;7.17;;;3.13;;
65035;SDS011;51603;49.300;8.880;2023-11-21T02:30:50;8.40;;;3.13;;
65035;SDS011;51603;49.300;8.880;2023-11-21T02:33:20;10.67;;;2.40;;
65035;SDS011;51603;49.300;8.880;2023-11-21T02:35:46;5.00;;;2.40;;
65035;SDS011;51603;49.300;8.880;2023-11-21T02:38:12;4.33;;;2.53;;
65035;SDS011;51603;49.300;8.880;2023-11-21T02:40:38;6.13;;;3.03;;
65035;SDS011;51603;49.300;8.880;2023-11-21T02:43:04;2.93;;;2.63;;
65035;SDS011;51603;49.300;8.880;2023-11-21T02:45:30;2.50;;;1.77;;
65035;SDS011;51603;49.300;8.880;2023-11-21T02:47:57;6.10;;;2.20;;
65035;SDS011;51603;49.300;8.880;2023-11-21T02:50:23;5.63;;;2.33;;
65035;SDS011;51603;49.300;8.880;2023-11-21T02:52:48;10.90;;;2.40;;
65035;SDS011;51603;49.300;8.880;2023-11-21T02:55:14;4.93;;;2.60;;
65035;SDS011;51603;49.300;8.880;2023-11-21T02:57:40;9.13;;;2.67;;
65035;SDS011;51603;49.300;8.880;2023-11-21T03:00:06;2.87;;;2.07;;
65035;SDS011;51603;49.300;8.880;2023-11-21T03:02:32;7.37;;;2.43;;
65035;SDS011;51603;49.300;8.880;2023-11-21T03:04:58;6.13;;;2.87;;
65035;SDS011;51603;49.300;8.880;2023-11-21T03:07:24;5.63;;;2.50;;
65035;SDS011;51603;49.300;8.880;2023-11-21T03:09:49;8.37;;;2.87;;
65035;SDS011;51603;49.300;8.880;2023-11-21T03:12:15;4.13;;;3.13;;
65035;SDS011;51603;49.300;8.880;2023-11-21T03:14:41;5.40;;;2.70;;
65035;SDS011;51603;49.300;8.880;2023-11-21T03:17:06;5.73;;;3.07;;
65035;SDS011;51603;49.300;8.880;2023-11-21T03:19:32;4.00;;;2.60;;
65035;SDS011;51603;49.300;8.880;2023-11-21T03:21:57;8.13;;;3.00;;
65035;SDS011;51603;49.300;8.880;2023-11-21T03:24:23;8.57;;;3.50;;
65035;SDS011;51603;49.300;8.880;2023-11-21T03:26:49;6.73;;;2.87;;
65035;SDS011;51603;49.300;8.880;2023-11-21T03:29:16;7.30;;;3.57;;
65035;SDS011;51603;49.300;8.880;2023-11-21T03:31:41;8.43;;;2.90;;
65035;SDS011;51603;49.300;8.880;2023-11-21T03:34:09;9.60;;;3.77;;
65035;SDS011;51603;49.300;8.880;2023-11-21T03:36:39;6.53;;;3.70;;
65035;SDS011;51603;49.300;8.880;2023-11-21T03:39:05;7.23;;;3.83;;
65035;SDS011;51603;49.300;8.880;2023-11-21T03:41:30;9.00;;;3.80;;
65035;SDS011;51603;49.300;8.880;2023-11-21T03:43:56;8.13;;;3.00;;
65035;SDS011;51603;49.300;8.880;2023-11-21T03:46:21;2.93;;;2.73;;
65035;SDS011;51603;49.300;8.880;2023-11-21T03:48:46;4.07;;;2.27;;
65035;SDS011;51603;49.300;8.880;2023-11-21T03:51:12;3.70;;;2.50;;
65035;SDS011;51603;49.300;8.880;2023-11-21T03:53:37;3.53;;;2.80;;
65035;SDS011;51603;49.300;8.880;2023-11-21T03:56:03;4.37;;;2.63;;
65035;SDS011;51603;49.300;8.880;2023-11-21T03:58:29;8.77;;;3.67;;
65035;SDS011;51603;49.300;8.880;2023-11-21T04:00:55;10.13;;;4.27;;
65035;SDS011;51603;49.300;8.880;2023-11-21T04:03:20;10.63;;;3.83;;
65035;SDS011;51603;49.300;8.880;2023-11-21T04:05:46;6.03;;;3.40;;
65035;SDS011;51603;49.300;8.880;2023-11-21T04:08:12;8.10;;;4.33;;
65035;SDS011;51603;49.300;8.880;2023-11-21T04:10:37;8.93;;;3.23;;
65035;SDS011;51603;49.300;8.880;2023-11-21T04:13:04;9.00;;;3.57;;
65035;SDS011;51603;49.300;8.880;2023-11-21T04:15:31;5.63;;;3.20;;
65035;SDS011;51603;49.300;8.880;2023-11-21T04:17:57;5.13;;;3.50;;
65035;SDS011;51603;49.300;8.880;2023-11-21T04:20:22;4.47;;;3.67;;
65035;SDS011;51603;49.300;8.880;2023-11-21T04:22:48;8.60;;;4.20;;
65035;SDS011;51603;49.300;8.880;2023-11-21T04:25:14;7.53;;;5.03;;
65035;SDS011;51603;49.300;8.880;2023-11-21T04:27:40;6.87;;;3.93;;
65035;SDS011;51603;49.300;8.880;2023-11-21T04:30:08;9.80;;;4.50;;
65035;SDS011;51603;49.300;8.880;2023-11-21T04:32:38;7.17;;;4.43;;
65035;SDS011;51603;49.300;8.880;2023-11-21T04:35:07;7.97;;;5.17;;
65035;SDS011;51603;49.300;8.880;2023-11-21T04:37:33;8.57;;;4.97;;
65035;SDS011;51603;49.300;8.880;2023-11-21T04:39:59;7.70;;;5.50;;
65035;SDS011;51603;49.300;8.880;2023-11-21T04:42:25;6.07;;;4.70;;
65035;SDS011;51603;49.300;8.880;2023-11-21T04:44:50;8.50;;;6.73;;
65035;SDS011;51603;49.300;8.880;2023-11-21T04:47:17;6.27;;;5.67;;
65035;SDS011;51603;49.300;8.880;2023-11-21T04:49:45;8.80;;;5.97;;
65035;SDS011;51603;49.300;8.880;2023-11-21T04:52:12;6.93;;;6.20;;
65035;SDS011;51603;49.300;8.880;2023-11-21T04:54:37;10.40;;;5.93;;
65035;SDS011;51603;49.300;8.880;2023-11-21T04:57:04;9.10;;;6.60;;
65035;SDS011;51603;49.300;8.880;2023-11-21T04:59:32;7.03;;;6.37;;
65035;SDS011;51603;49.300;8.880;2023-11-21T05:01:58;8.43;;;7.10;;
65035;SDS011;51603;49.300;8.880;2023-11-21T05:04:25;10.30;;;9.23;;
65035;SDS011;51603;49.300;8.880;2023-11-21T05:06:50;12.33;;;9.03;;
65035;SDS011;51603;49.300;8.880;2023-11-21T05:09:16;11.40;;;9.33;;
65035;SDS011;51603;49.300;8.880;2023-11-21T05:11:42;10.70;;;9.57;;
65035;SDS011;51603;49.300;8.880;2023-11-21T05:14:08;15.50;;;14.00;;
65035;SDS011;51603;49.300;8.880;2023-11-21T05:16:33;9.23;;;8.43;;
65035;SDS011;51603;49.300;8.880;2023-11-21T05:19:00;13.83;;;12.53;;
65035;SDS011;51603;49.300;8.880;2023-11-21T05:21:26;12.73;;;11.57;;
65035;SDS011;51603;49.300;8.880;2023-11-21T05:23:52;15.93;;;14.53;;
65035;SDS011;51603;49.300;8.880;2023-11-21T05:26:18;8.83;;;8.10;;
65035;SDS011;51603;49.300;8.880;2023-11-21T05:28:43;9.07;;;5.40;;
65035;SDS011;51603;49.300;8.880;2023-11-21T05:31:09;8.50;;;7.70;;
65035;SDS011;51603;49.300;8.880;2023-11-21T05:33:35;8.10;;;6.30;;
65035;SDS011;51603;49.300;8.880;2023-11-21T05:36:01;7.60;;;6.10;;
65035;SDS011;51603;49.300;8.880;2023-11-21T05:38:27;6.07;;;5.47;;
65035;SDS011;51603;49.300;8.880;2023-11-21T05:40:52;7.97;;;7.00;;
65035;SDS011;51603;49.300;8.880;2023-11-21T05:43:18;6.90;;;6.23;;
65035;SDS011;51603;49.300;8.880;2023-11-21T05:45:43;7.03;;;6.33;;
65035;SDS011;51603;49.300;8.880;2023-11-21T05:48:08;6.90;;;6.20;;
65035;SDS011;51603;49.300;8.880;2023-11-21T05:50:34;8.03;;;6.10;;
65035;SDS011;51603;49.300;8.880;2023-11-21T05:53:00;7.30;;;6.53;;
65035;SDS011;51603;49.300;8.880;2023-11-21T05:55:25;7.87;;;6.30;;
65035;SDS011;51603;49.300;8.880;2023-11-21T05:57:51;7.67;;;6.40;;
65035;SDS011;51603;49.300;8.880;2023-11-21T06:00:17;9.20;;;7.33;;
65035;SDS011;51603;49.300;8.880;2023-11-21T06:02:49;7.77;;;6.97;;
65035;SDS011;51603;49.300;8.880;2023-11-21T06:05:17;11.23;;;7.27;;
65035;SDS011;51603;49.300;8.880;2023-11-21T06:07:43;11.00;;;7.47;;
65035;SDS011;51603;49.300;8.880;2023-11-21T06:10:10;6.87;;;6.03;;
65035;SDS011;51603;49.300;8.880;2023-11-21T06:12:37;11.57;;;8.30;;
65035;SDS011;51603;49.300;8.880;2023-11-21T06:15:05;9.20;;;6.40;;
65035;SDS011;51603;49.300;8.880;2023-11-21T06:17:33;7.33;;;5.93;;
65035;SDS011;51603;49.300;8.880;2023-11-21T06:20:01;7.47;;;5.93;;
65035;SDS011;51603;49.300;8.880;2023-11-21T06:22:37;9.17;;;7.47;;
65035;SDS011;51603;49.300;8.880;2023-11-21T06:25:03;8.33;;;7.53;;
65035;SDS011;51603;49.300;8.880;2023-11-21T06:27:31;10.73;;;9.63;;
65035;SDS011;51603;49.300;8.880;2023-11-21T06:29:57;9.37;;;8.57;;
65035;SDS011;51603;49.300;8.880;2023-11-21T06:32:23;10.27;;;8.83;;
65035;SDS011;51603;49.300;8.880;2023-11-21T06:34:53;10.47;;;9.37;;
65035;SDS011;51603;49.300;8.880;2023-11-21T06:37:19;12.90;;;11.60;;
65035;SDS011;51603;49.300;8.880;2023-11-21T06:39:46;13.40;;;12.17;;
65035;SDS011;51603;49.300;8.880;2023-11-21T06:42:11;16.63;;;15.00;;
65035;SDS011;51603;49.300;8.880;2023-11-21T06:44:37;14.27;;;12.77;;
65035;SDS011;51603;49.300;8.880;2023-11-21T06:47:04;12.03;;;10.83;;
65035;SDS011;51603;49.300;8.880;2023-11-21T06:49:30;14.83;;;13.23;;
65035;SDS011;51603;49.300;8.880;2023-11-21T06:51:56;19.73;;;17.73;;
65035;SDS011;51603;49.300;8.880;2023-11-21T06:54:22;20.83;;;18.77;;
65035;SDS011;51603;49.300;8.880;2023-11-21T06:56:48;18.23;;;16.43;;
65035;SDS011;51603;49.300;8.880;2023-11-21T06:59:13;16.10;;;14.50;;
65035;SDS011;51603;49.300;8.880;2023-11-21T07:01:39;23.97;;;21.67;;
65035;SDS011;51603;49.300;8.880;2023-11-21T07:04:06;14.97;;;13.30;;
65035;SDS011;51603;49.300;8.880;2023-11-21T07:06:32;13.67;;;12.30;;
65035;SDS011;51603;49.300;8.880;2023-11-21T07:08:58;10.50;;;9.50;;
65035;SDS011;51603;49.300;8.880;2023-11-21T07:11:23;12.37;;;9.43;;
65035;SDS011;51603;49.300;8.880;2023-11-21T07:13:50;10.23;;;9.03;;
65035;SDS011;51603;49.300;8.880;2023-11-21T07:16:15;11.90;;;10.70;;
65035;SDS011;51603;49.300;8.880;2023-11-21T07:18:41;11.30;;;10.30;;
65035;SDS011;51603;49.300;8.880;2023-11-21T07:21:06;12.13;;;10.83;;
65035;SDS011;51603;49.300;8.880;2023-11-21T07:23:33;15.30;;;12.27;;
65035;SDS011;51603;49.300;8.880;2023-11-21T07:25:59;12.50;;;10.77;;
65035;SDS011;51603;49.300;8.880;2023-11-21T07:28:24;12.17;;;10.97;;
65035;SDS011;51603;49.300;8.880;2023-11-21T07:30:50;18.50;;;11.10;;
65035;SDS011;51603;49.300;8.880;2023-11-21T07:33:17;15.43;;;11.87;;
65035;SDS011;51603;49.300;8.880;2023-11-21T07:35:42;18.73;;;12.03;;
65035;SDS011;51603;49.300;8.880;2023-11-21T07:38:08;13.40;;;11.00;;
65035;SDS011;51603;49.300;8.880;2023-11-21T07:40:33;10.93;;;9.93;;
65035;SDS011;51603;49.300;8.880;2023-11-21T07:42:59;10.97;;;9.87;;
65035;SDS011;51603;49.300;8.880;2023-11-21T07:45:25;11.67;;;10.47;;
65035;SDS011;51603;49.300;8.880;2023-11-21T07:47:52;18.07;;;13.50;;
65035;SDS011;51603;49.300;8.880;2023-11-21T07:50:19;15.47;;;12.30;;
65035;SDS011;51603;49.300;8.880;2023-11-21T07:52:45;13.23;;;11.83;;
65035;SDS011;51603;49.300;8.880;2023-11-21T07:55:11;13.43;;;12.23;;
65035;SDS011;51603;49.300;8.880;2023-11-21T07:57:36;13.53;;;12.13;;
65035;SDS011;51603;49.300;8.880;2023-11-21T08:00:03;16.37;;;12.47;;
65035;SDS011;51603;49.300;8.880;2023-11-21T08:02:31;15.67;;;13.07;;
65035;SDS011;51603;49.300;8.880;2023-11-21T08:04:57;16.83;;;12.50;;
65035;SDS011;51603;49.300;8.880;2023-11-21T08:07:22;14.60;;;12.57;;
65035;SDS011;51603;49.300;8.880;2023-11-21T08:09:48;14.57;;;13.10;;
65035;SDS011;51603;49.300;8.880;2023-11-21T08:12:15;15.50;;;12.67;;
65035;SDS011;51603;49.300;8.880;2023-11-21T08:14:40;15.27;;;11.93;;
65035;SDS011;51603;49.300;8.880;2023-11-21T08:17:06;12.57;;;11.10;;
65035;SDS011;51603;49.300;8.880;2023-11-21T08:19:31;14.30;;;11.50;;
65035;SDS011;51603;49.300;8.880;2023-11-21T08:21:58;12.40;;;11.10;;
65035;SDS011;51603;49.300;8.880;2023-11-21T08:24:24;12.30;;;11.00;;
65035;SDS011;51603;49.300;8.880;2023-11-21T08:26:50;15.50;;;13.80;;
65035;SDS011;51603;49.300;8.880;2023-11-21T08:29:17;15.80;;;12.67;;
65035;SDS011;51603;49.300;8.880;2023-11-21T08:31:43;17.40;;;14.10;;
65035;SDS011;51603;49.300;8.880;2023-11-21T08:34:11;13.43;;;11.67;;
65035;SDS011;51603;49.300;8.880;2023-11-21T08:36:41;12.17;;;10.80;;
65035;SDS011;51603;49.300;8.880;2023-11-21T08:39:07;12.97;;;11.50;;
65035;SDS011;51603;49.300;8.880;2023-11-21T08:41:33;13.97;;;11.73;;
65035;SDS011;51603;49.300;8.880;2023-11-21T08:43:58;12.93;;;11.53;;
65035;SDS011;51603;49.300;8.880;2023-11-21T08:46:24;11.70;;;10.50;;
65035;SDS011;51603;49.300;8.880;2023-11-21T08:48:50;11.50;;;10.30;;
65035;SDS011;51603;49.300;8.880;2023-11-21T08:51:17;13.67;;;11.80;;
65035;SDS011;51603;49.300;8.880;2023-11-21T08:53:43;13.03;;;10.90;;
65035;SDS011;51603;49.300;8.880;2023-11-21T08:56:13;14.30;;;11.17;;
65035;SDS011;51603;49.300;8.880;2023-11-21T08:58:41;12.07;;;10.90;;
65035;SDS011;51603;49.300;8.880;2023-11-21T09:01:07;13.53;;;12.13;;
65035;SDS011;51603;49.300;8.880;2023-11-21T09:03:32;12.30;;;11.17;;
65035;SDS011;51603;49.300;8.880;2023-11-21T09:05:59;14.70;;;11.10;;
65035;SDS011;51603;49.300;8.880;2023-11-21T09:08:25;11.83;;;10.70;;
65035;SDS011;51603;49.300;8.880;2023-11-21T09:10:50;12.63;;;11.43;;
65035;SDS011;51603;49.300;8.880;2023-11-21T09:13:17;11.77;;;10.63;;
65035;SDS011;51603;49.300;8.880;2023-11-21T09:15:43;13.47;;;12.17;;
65035;SDS011;51603;49.300;8.880;2023-11-21T09:18:11;12.40;;;10.77;;
65035;SDS011;51603;49.300;8.880;2023-11-21T09:20:40;12.20;;;11.00;;
65035;SDS011;51603;49.300;8.880;2023-11-21T09:23:06;11.63;;;10.53;;
65035;SDS011;51603;49.300;8.880;2023-11-21T09:25:32;15.37;;;11.20;;
65035;SDS011;51603;49.300;8.880;2023-11-21T09:27:57;11.37;;;10.20;;
65035;SDS011;51603;49.300;8.880;2023-11-21T09:30:23;11.87;;;10.20;;
65035;SDS011;51603;49.300;8.880;2023-11-21T09:32:49;13.77;;;11.77;;
65035;SDS011;51603;49.300;8.880;2023-11-21T09:35:15;12.70;;;11.50;;
65035;SDS011;51603;49.300;8.880;2023-11-21T09:37:43;13.90;;;12.17;;
65035;SDS011;51603;49.300;8.880;2023-11-21T09:40:11;11.07;;;10.07;;
65035;SDS011;51603;49.300;8.880;2023-11-21T09:42:39;11.50;;;10.07;;
65035;SDS011;51603;49.300;8.880;2023-11-21T09:47:54;12.07;;;10.10;;
65035;SDS011;51603;49.300;8.880;2023-11-21T09:50:20;37.20;;;28.50;;
65035;SDS011;51603;49.300;8.880;2023-11-21T09:55:40;10.00;;;9.10;;
65035;SDS011;51603;49.300;8.880;2023-11-21T09:58:08;8.60;;;7.80;;
65035;SDS011;51603;49.300;8.880;2023-11-21T10:00:38;8.93;;;8.00;;
65035;SDS011;51603;49.300;8.880;2023-11-21T10:03:08;6.77;;;6.17;;
65035;SDS011;51603;49.300;8.880;2023-11-21T10:05:35;6.80;;;5.47;;
65035;SDS011;51603;49.300;8.880;2023-11-21T10:08:02;5.50;;;5.00;;
65035;SDS011;51603;49.300;8.880;2023-11-21T10:10:32;6.20;;;5.60;;
65035;SDS011;51603;49.300;8.880;2023-11-21T10:12:57;3.30;;;2.53;;
65035;SDS011;51603;49.300;8.880;2023-11-21T10:15:31;1.97;;;1.70;;
65035;SDS011;51603;49.300;8.880;2023-11-21T10:17:59;2.10;;;1.80;;
65035;SDS011;51603;49.300;8.880;2023-11-21T10:20:28;1.33;;;1.13;;
65035;SDS011;51603;49.300;8.880;2023-11-21T10:22:54;1.50;;;0.90;;
65035;SDS011;51603;49.300;8.880;2023-11-21T10:25:21;2.03;;;1.27;;
65035;SDS011;51603;49.300;8.880;2023-11-21T10:27:47;0.80;;;0.53;;
65035;SDS011;51603;49.300;8.880;2023-11-21T10:30:16;0.80;;;0.60;;
65035;SDS011;51603;49.300;8.880;2023-11-21T10:32:43;0.77;;;0.50;;
65035;SDS011;51603;49.300;8.880;2023-11-21T10:35:09;0.83;;;0.47;;
65035;SDS011;51603;49.300;8.880;2023-11-21T10:37:35;0.90;;;0.60;;
65035;SDS011;51603;49.300;8.880;2023-11-21T10:40:04;1.53;;;0.90;;
65035;SDS011;51603;49.300;8.880;2023-11-21T10:42:32;0.90;;;0.77;;
65035;SDS011;51603;49.300;8.880;2023-11-21T10:44:57;1.17;;;0.80;;
65035;SDS011;51603;49.300;8.880;2023-11-21T10:47:23;1.20;;;0.70;;
65035;SDS011;51603;49.300;8.880;2023-11-21T10:49:49;0.80;;;0.60;;
65035;SDS011;51603;49.300;8.880;2023-11-21T10:52:14;1.20;;;0.80;;
65035;SDS011;51603;49.300;8.880;2023-11-21T10:54:43;0.60;;;0.43;;
65035;SDS011;51603;49.300;8.880;2023-11-21T10:57:09;1.10;;;1.00;;
65035;SDS011;51603;49.300;8.880;2023-11-21T10:59:35;0.90;;;0.80;;
65035;SDS011;51603;49.300;8.880;2023-11-21T11:02:09;0.80;;;0.80;;
65035;SDS011;51603;49.300;8.880;2023-11-21T11:04:57;1.17;;;1.07;;
65035;SDS011;51603;49.300;8.880;2023-11-21T11:07:26;1.57;;;1.13;;
65035;SDS011;51603;49.300;8.880;2023-11-21T11:09:53;1.67;;;0.77;;
65035;SDS011;51603;49.300;8.880;2023-11-21T11:12:20;0.70;;;0.60;;
65035;SDS011;51603;49.300;8.880;2023-11-21T11:14:45;1.10;;;0.80;;
65035;SDS011;51603;49.300;8.880;2023-11-21T11:17:12;0.70;;;0.67;;
65035;SDS011;51603;49.300;8.880;2023-11-21T11:19:38;1.80;;;1.17;;
65035;SDS011;51603;49.300;8.880;2023-11-21T11:25:21;1.97;;;1.37;;
65035;SDS011;51603;49.300;8.880;2023-11-21T11:36:22;1.90;;;1.10;;
65035;SDS011;51603;49.300;8.880;2023-11-21T11:38:54;1.40;;;1.13;;
65035;SDS011;51603;49.300;8.880;2023-11-21T11:41:30;1.10;;;0.80;;
65035;SDS011;51603;49.300;8.880;2023-11-21T11:43:57;1.97;;;1.30;;
65035;SDS011;51603;49.300;8.880;2023-11-21T11:46:40;1.43;;;1.10;;
65035;SDS011;51603;49.300;8.880;2023-11-21T11:49:54;1.30;;;1.20;;
65035;SDS011;51603;49.300;8.880;2023-11-21T11:52:31;3.73;;;1.50;;
65035;SDS011;51603;49.300;8.880;2023-11-21T11:54:59;2.20;;;1.27;;
65035;SDS011;51603;49.300;8.880;2023-11-21T11:57:25;1.30;;;1.20;;
65035;SDS011;51603;49.300;8.880;2023-11-21T12:02:45;1.53;;;1.00;;
65035;SDS011;51603;49.300;8.880;2023-11-21T12:05:15;2.03;;;1.20;;
65035;SDS011;51603;49.300;8.880;2023-11-21T12:07:43;1.40;;;1.20;;
65035;SDS011;51603;49.300;8.880;2023-11-21T12:10:11;1.73;;;0.87;;
65035;SDS011;51603;49.300;8.880;2023-11-21T12:12:43;2.07;;;1.40;;
65035;SDS011;51603;49.300;8.880;2023-11-21T12:15:28;1.40;;;0.90;;
65035;SDS011;51603;49.300;8.880;2023-11-21T12:17:57;0.97;;;0.80;;
65035;SDS011;51603;49.300;8.880;2023-11-21T12:20:25;1.10;;;0.80;;
65035;SDS011;51603;49.300;8.880;2023-11-21T12:22:52;2.07;;;1.00;;
65035;SDS011;51603;49.300;8.880;2023-11-21T12:25:25;2.30;;;0.97;;
65035;SDS011;51603;49.300;8.880;2023-11-21T12:27:54;1.23;;;0.70;;
65035;SDS011;51603;49.300;8.880;2023-11-21T12:30:21;0.80;;;0.70;;
65035;SDS011;51603;49.300;8.880;2023-11-21T12:32:51;0.87;;;0.70;;
65035;SDS011;51603;49.300;8.880;2023-11-21T12:35:22;2.93;;;1.30;;
65035;SDS011;51603;49.300;8.880;2023-11-21T12:37:53;1.73;;;1.00;;
65035;SDS011;51603;49.300;8.880;2023-11-21T12:40:20;2.60;;;1.67;;
65035;SDS011;51603;49.300;8.880;2023-11-21T12:42:48;2.50;;;0.73;;
65035;SDS011;51603;49.300;8.880;2023-11-21T12:47:52;1.10;;;0.83;;
65035;SDS011;51603;49.300;8.880;2023-11-21T12:50:25;1.87;;;0.80;;
65035;SDS011;51603;49.300;8.880;2023-11-21T12:53:03;1.40;;;1.00;;
65035;SDS011;51603;49.300;8.880;2023-11-21T12:55:30;1.23;;;0.90;;
65035;SDS011;51603;49.300;8.880;2023-11-21T12:57:57;1.30;;;1.10;;
65035;SDS011;51603;49.300;8.880;2023-11-21T13:00:32;1.90;;;1.20;;
65035;SDS011;51603;49.300;8.880;2023-11-21T13:03:02;2.03;;;1.10;;
65035;SDS011;51603;49.300;8.880;2023-11-21T13:05:29;1.10;;;1.00;;
65035;SDS011;51603;49.300;8.880;2023-11-21T13:07:56;1.50;;;1.30;;
65035;SDS011;51603;49.300;8.880;2023-11-21T13:10:25;1.97;;;1.20;;
65035;SDS011;51603;49.300;8.880;2023-11-21T13:12:54;3.10;;;2.23;;
65035;SDS011;51603;49.300;8.880;2023-11-21T13:15:23;2.47;;;2.27;;
65035;SDS011;51603;49.300;8.880;2023-11-21T13:17:49;5.30;;;1.93;;
65035;SDS011;51603;49.300;8.880;2023-11-21T13:20:16;2.23;;;2.03;;
65035;SDS011;51603;49.300;8.880;2023-11-21T13:22:49;1.93;;;1.53;;
65035;SDS011;51603;49.300;8.880;2023-11-21T13:25:19;4.03;;;1.37;;
65035;SDS011;51603;49.300;8.880;2023-11-21T13:27:45;2.07;;;1.87;;
65035;SDS011;51603;49.300;8.880;2023-11-21T13:30:11;2.30;;;1.23;;
65035;SDS011;51603;49.300;8.880;2023-11-21T13:32:40;2.10;;;1.33;;
65035;SDS011;51603;49.300;8.880;2023-11-21T13:35:06;3.00;;;1.30;;
65035;SDS011;51603;49.300;8.880;2023-11-21T13:37:37;1.33;;;1.10;;
65035;SDS011;51603;49.300;8.880;2023-11-21T13:40:03;1.63;;;1.23;;
65035;SDS011;51603;49.300;8.880;2023-11-21T13:42:39;2.60;;;1.00;;
65035;SDS011;51603;49.300;8.880;2023-11-21T13:45:06;3.40;;;1.50;;
65035;SDS011;51603;49.300;8.880;2023-11-21T13:47:31;1.77;;;1.47;;
65035;SDS011;51603;49.300;8.880;2023-11-21T13:49:59;2.70;;;1.40;;
65035;SDS011;51603;49.300;8.880;2023-11-21T13:52:25;2.20;;;1.37;;
65035;SDS011;51603;49.300;8.880;2023-11-21T13:54:53;2.47;;;1.23;;
65035;SDS011;51603;49.300;8.880;2023-11-21T13:57:18;1.23;;;1.03;;
65035;SDS011;51603;49.300;8.880;2023-11-21T13:59:45;2.57;;;1.80;;
65035;SDS011;51603;49.300;8.880;2023-11-21T14:02:11;3.10;;;1.80;;
65035;SDS011;51603;49.300;8.880;2023-11-21T14:04:43;2.30;;;1.77;;
65035;SDS011;51603;49.300;8.880;2023-11-21T14:07:20;1.63;;;1.20;;
65035;SDS011;51603;49.300;8.880;2023-11-21T14:10:01;1.83;;;1.27;;
65035;SDS011;51603;49.300;8.880;2023-11-21T14:12:28;2.10;;;1.20;;
65035;SDS011;51603;49.300;8.880;2023-11-21T14:14:54;1.70;;;1.00;;
65035;SDS011;51603;49.300;8.880;2023-11-21T14:17:20;1.63;;;1.10;;
65035;SDS011;51603;49.300;8.880;2023-11-21T14:19:47;1.20;;;0.97;;
65035;SDS011;51603;49.300;8.880;2023-11-21T14:22:14;1.00;;;0.83;;
65035;SDS011;51603;49.300;8.880;2023-11-21T14:24:39;2.80;;;1.30;;
65035;SDS011;51603;49.300;8.880;2023-11-21T14:27:12;2.00;;;1.30;;
65035;SDS011;51603;49.300;8.880;2023-11-21T14:29:38;3.27;;;1.13;;
65035;SDS011;51603;49.300;8.880;2023-11-21T14:32:07;1.50;;;1.10;;
65035;SDS011;51603;49.300;8.880;2023-11-21T14:34:33;2.00;;;1.30;;
65035;SDS011;51603;49.300;8.880;2023-11-21T14:36:58;1.70;;;1.30;;
65035;SDS011;51603;49.300;8.880;2023-11-21T14:39:24;1.53;;;1.43;;
65035;SDS011;51603;49.300;8.880;2023-11-21T14:41:52;2.60;;;1.67;;
65035;SDS011;51603;49.300;8.880;2023-11-21T14:44:20;1.37;;;1.10;;
65035;SDS011;51603;49.300;8.880;2023-11-21T14:46:50;1.80;;;1.07;;
65035;SDS011;51603;49.300;8.880;2023-11-21T14:49:16;2.90;;;1.30;;
65035;SDS011;51603;49.300;8.880;2023-11-21T14:51:48;2.63;;;1.73;;
65035;SDS011;51603;49.300;8.880;2023-11-21T14:54:25;2.10;;;1.67;;
65035;SDS011;51603;49.300;8.880;2023-11-21T14:57:11;2.47;;;2.27;;
65035;SDS011;51603;49.300;8.880;2023-11-21T14:59:44;5.13;;;3.47;;
65035;SDS011;51603;49.300;8.880;2023-11-21T15:02:17;3.40;;;2.90;;
65035;SDS011;51603;49.300;8.880;2023-11-21T15:04:47;8.37;;;7.17;;